Time;durP1;ratioP1;P1;durP2;ratioP2;P2;SDS_P1;SDS_P2;PMS_P1;PMS_P2;Temp;Humidity;BMP_temperature;BMP_pressure;BME280_temperature;BME280_humidity;BME280_pressure;Samples;Min_cycle;Max_cycle;Signal;HPM_P1;HPM_P2
2022/05/11 00:07:45;;;;;;;11.38;8.50;;;;;;;16.93;91.04;100394.97;20926095;28;20103;-68
2022/05/11 00:17:46;;;;;;;10.23;8.50;;;;;;;16.96;90.20;100389.56;20928170;28;20045;-67
2022/05/11 00:27:48;;;;;;;10.68;8.88;;;;;;;16.87;90.09;100389.97;20927603;28;20052;-68
2022/05/11 00:37:50;;;;;;;12.32;8.38;;;;;;;16.88;89.33;100381.94;20926777;28;20100;-68
2022/05/11 00:47:58;;;;;;;11.45;7.25;;;;;;;16.92;88.41;100377.41;20877406;28;20075;-67
2022/05/11 00:58:09;;;;;;;9.45;7.13;;;;;;;16.94;88.16;100364.97;20870631;28;20061;-68
2022/05/11 01:08:15;;;;;;;9.90;7.25;;;;;;;16.87;88.40;100366.16;20867404;28;20066;-69
2022/05/11 01:18:18;;;;;;;10.75;7.55;;;;;;;16.81;89.17;100359.31;20868712;28;20053;-68
2022/05/11 01:28:20;;;;;;;11.20;7.43;;;;;;;16.79;89.17;100355.03;20867654;28;20049;-68
2022/05/11 01:38:36;;;;;;;11.38;7.57;;;;;;;16.70;89.52;100358.03;20862072;28;20433;-68
2022/05/11 01:48:38;;;;;;;10.10;7.55;;;;;;;16.54;90.67;100360.44;20864546;28;20122;-68
2022/05/11 01:58:39;;;;;;;9.85;7.28;;;;;;;16.41;91.38;100354.78;20864589;28;20095;-68
2022/05/11 02:08:43;;;;;;;12.65;8.00;;;;;;;16.27;91.65;100350.06;20862390;28;20123;-68
2022/05/11 02:18:44;;;;;;;11.75;7.90;;;;;;;16.13;93.22;100347.09;20863800;28;20483;-68
2022/05/11 02:28:49;;;;;;;10.05;8.00;;;;;;;15.96;94.40;100355.69;20862995;28;20045;-68
2022/05/11 02:38:52;;;;;;;14.40;9.20;;;;;;;15.79;95.21;100356.34;20861968;28;20104;-68
2022/05/11 02:48:54;;;;;;;11.70;8.48;;;;;;;15.62;96.09;100349.03;20861943;28;20100;-68
2022/05/11 02:58:55;;;;;;;12.27;8.55;;;;;;;15.44;97.46;100357.63;20861843;28;20146;-68
2022/05/11 03:08:57;;;;;;;11.77;8.70;;;;;;;15.31;98.51;100353.69;20859662;28;20421;-69
2022/05/11 03:19:01;;;;;;;11.40;9.00;;;;;;;15.25;98.83;100349.50;20861025;28;20110;-68
2022/05/11 03:29:05;;;;;;;13.25;9.13;;;;;;;15.09;99.28;100343.91;20860378;28;20490;-68
2022/05/11 03:39:07;;;;;;;13.90;8.98;;;;;;;14.92;99.96;100348.91;20858758;28;20045;-68
2022/05/11 03:49:09;;;;;;;12.23;9.38;;;;;;;14.79;100.00;100339.69;20858297;28;20053;-68
2022/05/11 03:59:11;;;;;;;13.27;9.90;;;;;;;14.70;100.00;100340.84;20857703;28;20049;-68
2022/05/11 04:09:12;;;;;;;11.52;8.90;;;;;;;14.65;100.00;100341.94;20855175;28;20118;-68
2022/05/11 04:19:14;;;;;;;12.07;9.25;;;;;;;14.65;100.00;100339.28;20864618;28;20052;-70
2022/05/11 04:29:16;;;;;;;13.48;10.25;;;;;;;14.73;100.00;100345.19;20868865;28;20464;-70
2022/05/11 04:39:18;;;;;;;12.75;9.90;;;;;;;15.05;100.00;100346.72;20870709;28;20427;-70
2022/05/11 04:49:20;;;;;;;12.48;10.18;;;;;;;15.57;99.10;100335.16;20870084;28;20120;-69
2022/05/11 04:59:22;;;;;;;13.55;9.50;;;;;;;15.84;97.80;100338.53;20869515;28;20501;-69
2022/05/11 05:09:24;;;;;;;15.45;9.65;;;;;;;16.11;96.14;100335.75;20867576;28;20080;-70
2022/05/11 05:19:25;;;;;;;13.02;8.90;;;;;;;16.38;94.86;100334.66;20868914;28;20095;-70
2022/05/11 05:39:47;;;;;;;11.15;7.88;;;;;;;16.80;92.60;100338.22;20863299;28;20102;-69
2022/05/11 05:49:49;;;;;;;11.73;7.80;;;;;;;17.07;92.09;100339.72;20865096;28;20429;-69
2022/05/11 05:59:50;;;;;;;11.52;8.15;;;;;;;17.38;91.29;100333.91;20864260;28;20352;-69
2022/05/11 06:09:51;;;;;;;13.57;6.63;;;;;;;17.78;87.96;100328.63;20861676;28;20049;-70
2022/05/11 06:19:53;;;;;;;8.82;6.35;;;;;;;18.30;84.62;100328.78;20863545;28;20112;-69
2022/05/11 06:29:57;;;;;;;8.48;5.43;;;;;;;18.88;79.82;100325.91;20863088;28;20476;-70
2022/05/11 06:39:59;;;;;;;;;;;;;;;19.25;77.20;100318.69;20862244;28;20053;-70
2022/05/11 06:50:02;;;;;;;7.65;4.80;;;;;;;19.61;74.86;100310.56;20861409;28;19921;-70
2022/05/11 07:00:06;;;;;;;8.47;5.37;;;;;;;19.82;74.52;100313.84;20861370;28;20049;-70
2022/05/11 07:10:08;;;;;;;7.57;4.67;;;;;;;20.24;71.92;100306.13;20845222;28;20041;-70
2022/05/11 07:20:14;;;;;;;6.90;4.80;;;;;;;20.56;70.59;100295.47;20842001;28;20065;-70
2022/05/11 07:30:27;;;;;;;7.13;4.15;;;;;;;20.92;70.47;100302.19;20848519;28;20482;-70
2022/05/11 07:40:35;;;;;;;10.27;4.82;;;;;;;21.30;67.95;100283.00;20846556;28;20107;-70
2022/05/11 07:50:37;;;;;;;8.50;4.80;;;;;;;21.63;67.35;100282.75;20852503;28;20049;-70
2022/05/11 08:00:38;;;;;;;6.93;4.47;;;;;;;21.93;62.20;100269.25;20865258;28;20046;-70
2022/05/11 08:10:44;;;;;;;7.60;4.30;;;;;;;22.15;60.39;100266.94;20863533;28;20049;-70
2022/05/11 08:20:46;;;;;;;6.30;4.35;;;;;;;22.59;58.63;100268.44;20865511;28;20052;-71
2022/05/11 08:41:26;;;;;;;7.47;4.63;;;;;;;23.30;58.10;100248.41;20863991;28;20048;-70
2022/05/11 08:51:44;;;;;;;9.45;4.72;;;;;;;23.61;55.70;100241.69;20860035;28;20211;-69
2022/05/11 09:01:58;;;;;;;8.40;4.80;;;;;;;24.26;54.44;100233.34;20860258;28;20056;-70
2022/05/11 09:11:59;;;;;;;6.55;4.30;;;;;;;24.63;53.70;100229.72;20859823;28;20478;-70
2022/05/11 09:22:17;;;;;;;8.98;4.32;;;;;;;25.08;51.49;100214.59;20859752;28;20049;-70
2022/05/11 09:32:38;;;;;;;9.43;4.70;;;;;;;25.05;49.34;100212.09;20858674;28;20136;-70
2022/05/11 09:42:53;;;;;;;6.47;4.15;;;;;;;25.59;48.57;100203.34;20857794;28;20061;-70
2022/05/11 09:53:10;;;;;;;11.32;4.70;;;;;;;25.88;45.29;100189.41;20857690;28;20061;-69
2022/05/11 10:03:16;;;;;;;9.43;4.20;;;;;;;26.10;46.34;100178.56;20855883;28;20049;-70
2022/05/11 10:13:21;;;;;;;5.53;4.00;;;;;;;26.67;45.05;100171.91;20855716;28;20083;-70
2022/05/11 10:23:52;;;;;;;6.80;4.38;;;;;;;26.81;42.90;100160.81;20856413;28;20051;-70
2022/05/11 10:34:26;;;;;;;6.93;3.90;;;;;;;26.60;42.77;100143.91;20853008;28;20485;-70
2022/05/11 10:44:36;;;;;;;10.63;4.03;;;;;;;26.94;43.45;100132.91;20852937;28;20052;-70
2022/05/11 10:54:55;;;;;;;6.85;4.10;;;;;;;27.22;41.40;100121.41;20854059;28;20045;-70
2022/05/11 11:05:10;;;;;;;6.45;4.15;;;;;;;27.46;41.14;100109.44;20851654;28;20098;-69
2022/05/11 11:15:14;;;;;;;9.70;4.72;;;;;;;27.33;40.16;100098.94;20846280;28;20450;-70
2022/05/11 11:25:16;;;;;;;6.70;3.95;;;;;;;27.70;39.29;100082.13;20845182;28;20442;-69
2022/05/11 11:35:23;;;;;;;6.25;4.03;;;;;;;27.85;39.66;100078.88;20851442;28;20103;-69
2022/05/11 11:45:26;;;;;;;7.13;4.20;;;;;;;28.34;37.41;100070.75;20852157;28;20119;-69
2022/05/11 11:55:30;;;;;;;9.50;3.90;;;;;;;27.54;37.52;100055.78;20849307;28;20437;-69
2022/05/11 12:05:45;;;;;;;6.30;3.40;;;;;;;28.30;36.51;100043.22;20845830;28;20045;-70
2022/05/11 12:15:58;;;;;;;6.78;3.65;;;;;;;28.38;35.09;100029.91;20849858;28;20449;-70
2022/05/11 12:26:04;;;;;;;6.77;3.70;;;;;;;28.00;36.35;100035.38;20848463;28;20053;-69
2022/05/11 12:36:07;;;;;;;5.53;3.22;;;;;;;28.42;36.20;100013.47;20849329;28;20552;-70
2022/05/11 12:46:15;;;;;;;6.43;3.00;;;;;;;28.53;33.53;100011.44;20863319;28;20053;-70
2022/05/11 12:56:20;;;;;;;4.68;2.50;;;;;;;28.20;32.17;99991.25;20862401;28;20088;-70
2022/05/11 13:06:34;;;;;;;5.43;2.67;;;;;;;28.15;31.73;99984.63;20860414;28;20042;-70
2022/05/11 13:16:35;;;;;;;5.28;2.47;;;;;;;28.46;31.15;99971.75;20860049;28;20061;-70
2022/05/11 13:26:44;;;;;;;4.35;2.60;;;;;;;28.34;29.64;99963.88;20860331;28;20474;-70
2022/05/11 13:36:51;;;;;;;6.60;2.33;;;;;;;28.55;29.72;99954.69;20858672;28;20199;-70
2022/05/11 13:57:29;;;;;;;7.28;2.50;;;;;;;28.14;29.17;99929.94;20858213;28;20522;-68
2022/05/11 14:07:30;;;;;;;6.40;2.50;;;;;;;28.06;28.95;99924.44;20854049;28;20559;-68
2022/05/11 14:17:42;;;;;;;8.32;2.50;;;;;;;28.34;28.86;99919.97;20856282;28;20057;-68
2022/05/11 14:27:43;;;;;;;8.05;2.05;;;;;;;28.62;27.95;99923.47;20852985;28;20111;-68
2022/05/11 14:37:45;;;;;;;4.97;2.13;;;;;;;28.62;28.02;99902.78;20854314;28;20502;-68
2022/05/11 14:48:00;;;;;;;3.60;1.85;;;;;;;28.58;27.17;99895.16;20855631;28;20045;-68
2022/05/11 15:08:21;;;;;;;4.78;2.05;;;;;;;28.59;26.51;99888.75;20849518;28;20053;-68
2022/05/11 15:18:25;;;;;;;4.53;1.92;;;;;;;28.37;27.27;99898.13;20849988;28;20410;-68
2022/05/11 15:28:27;;;;;;;6.85;2.53;;;;;;;28.51;26.51;99886.84;20847560;28;20049;-68
2022/05/11 15:38:29;;;;;;;8.80;2.15;;;;;;;28.32;26.38;99901.22;20851102;28;20586;-68
2022/05/11 15:48:32;;;;;;;9.23;2.40;;;;;;;28.48;26.21;99887.13;20849899;28;20417;-68
2022/05/11 15:58:35;;;;;;;5.68;1.95;;;;;;;28.52;27.06;99885.84;20851309;28;20045;-68
2022/05/11 16:08:38;;;;;;;3.45;2.00;;;;;;;28.46;27.57;99880.19;20848988;28;20111;-69
2022/05/11 16:29:00;;;;;;;6.95;2.20;;;;;;;28.46;27.70;99880.19;20863216;28;20045;-70
2022/05/11 16:39:04;;;;;;;8.02;2.35;;;;;;;28.62;29.01;99881.22;20864273;28;20480;-69
2022/05/11 16:49:05;;;;;;;6.20;2.40;;;;;;;28.34;29.75;99871.50;20859534;28;20525;-70
2022/05/11 16:59:07;;;;;;;7.03;2.45;;;;;;;28.19;30.31;99884.59;20862149;28;20053;-69
2022/05/11 17:09:09;;;;;;;7.25;2.33;;;;;;;28.04;30.35;99886.91;20859481;28;20049;-68
2022/05/11 17:19:11;;;;;;;4.75;2.15;;;;;;;27.96;30.40;99880.59;20860637;28;20549;-69
2022/05/11 17:29:12;;;;;;;4.50;2.25;;;;;;;27.65;31.41;99878.13;20859914;28;20072;-68
2022/05/11 17:39:14;;;;;;;7.53;3.00;;;;;;;27.44;31.57;99883.69;20862344;28;20467;-68
2022/05/11 17:49:15;;;;;;;4.90;2.40;;;;;;;27.28;32.40;99884.28;20858236;28;20079;-68
2022/05/11 17:59:17;;;;;;;6.85;2.55;;;;;;;27.06;33.03;99885.41;20857281;28;20104;-68
2022/05/11 18:09:18;;;;;;;8.45;3.13;;;;;;;26.27;39.47;99893.50;20858146;28;20041;-68
2022/05/11 18:19:20;;;;;;;7.75;3.10;;;;;;;26.07;36.99;99884.53;20855876;28;20053;-68
2022/05/11 18:29:21;;;;;;;6.32;2.55;;;;;;;25.84;37.08;99891.06;20855213;28;20049;-68
2022/05/11 18:39:26;;;;;;;6.53;2.67;;;;;;;25.57;37.79;99910.38;20852970;28;20555;-68
2022/05/11 18:49:29;;;;;;;3.80;2.63;;;;;;;25.25;38.58;99908.63;20853842;28;20053;-68
2022/05/11 18:59:32;;;;;;;4.60;2.88;;;;;;;24.97;39.25;99927.97;20853617;28;20533;-68
2022/05/11 19:09:34;;;;;;;5.40;2.78;;;;;;;24.65;40.53;99936.81;20851849;28;20045;-68
2022/05/11 19:19:36;;;;;;;7.53;3.22;;;;;;;24.35;41.44;99960.69;20851237;28;20053;-69
2022/05/11 19:29:37;;;;;;;5.28;2.92;;;;;;;24.25;42.17;99972.13;20849739;28;20044;-68
2022/05/11 19:39:39;;;;;;;6.30;3.15;;;;;;;24.09;42.73;99984.97;20851617;28;20543;-67
2022/05/11 19:49:41;;;;;;;9.32;3.47;;;;;;;23.74;43.74;99988.59;20859286;28;20450;-68
2022/05/11 19:59:43;;;;;;;5.72;3.17;;;;;;;23.53;44.32;99984.88;20866466;28;20049;-67
2022/05/11 20:09:45;;;;;;;4.50;2.80;;;;;;;23.20;46.34;99994.44;20864208;28;20045;-67
2022/05/11 20:19:47;;;;;;;8.18;3.60;;;;;;;22.97;47.58;99997.97;20866280;28;20061;-67
2022/05/11 20:29:48;;;;;;;7.03;3.53;;;;;;;22.58;50.10;99999.88;20864618;28;20049;-67
2022/05/11 20:39:50;;;;;;;8.02;3.63;;;;;;;22.51;50.22;99999.44;20863096;28;20447;-67
2022/05/11 20:49:52;;;;;;;8.68;3.60;;;;;;;22.57;49.33;100003.53;20862526;28;20467;-67
2022/05/11 20:59:53;;;;;;;6.13;3.92;;;;;;;22.51;50.34;100003.94;20861351;28;20049;-67
2022/05/11 21:09:55;;;;;;;5.88;3.50;;;;;;;22.43;51.20;100000.97;20859832;28;20049;-67
2022/05/11 21:19:56;;;;;;;6.63;3.72;;;;;;;22.27;52.49;99996.72;20857147;28;20106;-67
2022/05/11 21:29:58;;;;;;;6.75;3.28;;;;;;;22.16;52.49;99980.63;20857829;28;20053;-67
2022/05/11 21:40:00;;;;;;;7.45;3.75;;;;;;;22.01;54.43;99974.53;20863723;28;20053;-67
2022/05/11 21:50:03;;;;;;;6.85;3.65;;;;;;;21.94;54.12;99975.03;20859238;28;20060;-67
2022/05/11 22:00:06;;;;;;;9.95;3.45;;;;;;;21.76;56.19;99987.84;20857398;28;20053;-67
2022/05/11 22:10:08;;;;;;;8.57;3.75;;;;;;;21.44;59.23;100011.34;20858883;28;20053;-68
2022/05/11 22:20:10;;;;;;;6.93;3.60;;;;;;;21.30;58.12;100077.94;20864881;28;20537;-68
2022/05/11 22:30:14;;;;;;;7.95;3.63;;;;;;;21.69;55.49;100056.69;20863312;28;20122;-68
2022/05/11 22:40:15;;;;;;;;;;;;;;;22.06;53.05;100070.19;20859429;28;20422;-69
2022/05/11 22:50:18;;;;;;;5.57;3.35;;;;;;;21.96;53.65;100077.13;20862130;28;19921;-70
2022/05/11 23:00:23;;;;;;;7.20;3.50;;;;;;;21.73;55.13;100071.53;20861506;28;20048;-69
2022/05/11 23:10:28;;;;;;;7.10;3.58;;;;;;;21.37;58.74;100079.31;20860775;28;20053;-69
2022/05/11 23:20:30;;;;;;;7.78;4.07;;;;;;;21.05;61.69;100100.84;20860491;28;20049;-69
2022/05/11 23:30:32;;;;;;;7.53;4.15;;;;;;;20.67;64.16;100111.25;20861306;28;20410;-69
2022/05/11 23:40:34;;;;;;;7.40;3.80;;;;;;;20.91;62.15;100117.69;20858402;28;20399;-68
2022/05/11 23:50:38;;;;;;;7.88;4.03;;;;;;;20.88;62.08;100125.00;20859113;28;20540;-67
